Station: Portable Qfra Br  

  Atmospheric Gas Attenuation - ITU Rec 676-11   ----------------- dB/100km -----------------
Date Time Temp RH % AH g/m3 Dew Point Wind Direction Speed kph Gust kph Barometer mB Rainfall Since 9am 24GHz 47GHz 76GHz 122GHz 134GHz 241GHz
08/05 12:20 20.5 25 4.45 0.1 4 6 1013.1 0 10.6 18.3 22.6 58.5 44.0 148.3
08/05 12:10 20.4 27 4.78 0.9 4 6 1013.1 0 11.3 18.8 23.6 61.3 47.5 160.6
08/05 12:00 20.6 26 4.65 0.6 4 4 1013.1 0 11.0 18.6 23.2 60.1 46.0 155.4
08/05 11:50 20.6 24 4.3 -0.6 6 7 1013.1 0 10.3 18.1 22.1 57.2 42.4 142.8
08/05 11:40 20.9 27 4.92 1.2 4 6 1013.1 0 11.6 18.9 23.9 62.1 48.6 164.7
08/05 11:30 20.8 26 4.71 0.7 6 7 1013.1 0 11.1 18.6 23.3 60.4 46.5 157.2
08/05 11:20 21.2 30 5.56 3.3 4 6 1013.1 0 12.9 19.6 25.9 67.3 55.2 187.8
08/05 11:10 21 24 4.4 0 4 6 1013.1 0 10.5 18.2 22.3 57.7 43.2 145.7
08/05 11:00 20.8 26 4.71 0.9 6 7 1013.1 0 11.1 18.6 23.3 60.4 46.5 157.2
08/05 10:50 20.4 27 4.78 0.8 4 7 1013.1 0 11.3 18.8 23.6 61.3 47.5 160.6
08/05 10:40 20.1 26 4.52 -0.1 4 7 1013.1 0 10.7 18.5 22.9 59.3 44.9 151.6
08/05 10:30 19.9 28 4.81 0.8 6 7 1013.1 0 11.4 18.9 23.9 61.9 48.1 162.6
08/05 10:20 19.9 28 4.81 1.1 6 7 1013.1 0 11.4 18.9 23.9 61.9 48.1 162.6
08/05 10:10 19.9 31 5.33 2.2 4 7 1013.1 0 12.4 19.6 25.5 66.4 53.6 182.1
08/05 10:00 19.4 31 5.17 2 6 6 1013.1 0 12.1 19.5 25.2 65.4 52.2 177.1
08/05 09:50 19.7 28 4.75 1 6 7 1013.1 0 11.2 18.9 23.7 61.6 47.6 160.8
08/05 09:40 19.3 29 4.81 1.2 6 7 1013.1 0 11.4 19.0 24.0 62.4 48.4 163.8
08/05 09:30 19.2 29 4.78 1 4 6 1013.1 0 11.3 19.0 24.0 62.2 48.2 162.9
08/05 09:20 18.8 28 4.51 0.1 6 7 1013.1 0 10.8 18.7 23.2 60.2 45.5 153.6
08/05 09:10 17.9 31 4.73 0.5 7 9 1013.1 0 11.2 19.2 24.2 62.8 48.4 163.5
08/05 09:00 17.5 32 4.77 0.8 6 9 1013.1 0 11.3 19.3 24.4 63.4 49.1 165.9
08/05 08:50 17.1 32 4.66 0.4 7 9 1013.1 0 11.1 19.3 24.2 62.7 48.1 162.5
08/05 08:40 16.5 36 5.05 1.3 7 7 1013.1 0 12.0 19.9 25.7 66.7 52.8 178.7
08/05 08:30 15.9 37 5.01 1.5 6 7 1013.1 0 11.9 20.0 25.7 66.8 52.7 178.5
08/05 08:20 15.3 41 5.35 2.3 6 6 1013.1 0 12.6 20.6 27.1 70.4 57.0 193.3
08/05 08:10 14.9 41 5.23 2 6 7 1013.1 0 12.4 20.5 26.8 69.7 55.9 189.4
08/05 08:00 14.2 45 5.5 2.4 6 6 1013.1 0 13.0 21.1 27.9 72.8 59.5 202.1
08/05 07:50 13.5 53 6.2 4.1 4 6 1013.1 0 14.5 22.2 30.7 80.2 68.3 233.1
08/05 07:40 13.1 53 6.05 3.8 4 6 1013.1 0 14.2 22.1 30.3 79.1 66.9 227.9
08/05 07:30 12.7 52 5.79 3.1 4 6 1013.1 0 13.6 21.8 29.5 76.9 64.1 218.0
08/05 07:20 12.4 56 6.12 3.9 4 6 1013.1 0 14.4 22.4 30.8 80.5 68.3 232.9
08/05 07:10 12.2 57 6.15 3.9 4 6 1013.1 0 14.4 22.5 31.0 81.0 68.9 234.8
08/05 07:00 11.9 54 5.72 2.9 4 4 1013.1 0 13.5 21.9 29.5 77.0 63.9 217.2
08/05 06:50 12 55 5.86 3.3 4 4 1013.1 0 13.8 22.1 30.0 78.3 65.5 222.9
08/05 06:40 12.1 52 5.58 2.7 4 6 1013.1 0 13.2 21.7 29.0 75.5 62.0 210.7
08/05 06:30 12 53 5.65 2.9 4 4 1013.1 0 13.4 21.8 29.3 76.3 62.9 213.9
08/05 06:20 12.1 55 5.9 3.4 4 6 1013.1 0 13.9 22.1 30.1 78.6 65.9 224.3
08/05 06:10 12.1 53 5.68 2.9 4 6 1013.1 0 13.4 21.8 29.3 76.4 63.2 215.0
08/05 06:00 11.9 54 5.72 3 4 6 1013.1 0 13.5 21.9 29.5 77.0 63.9 217.2
08/05 05:50 12.1 59 6.33 4.3 2 2 1013.1 0 14.8 22.8 31.7 82.9 71.2 242.8
08/05 05:40 12.7 55 6.12 4 4 6 1013.1 0 14.4 22.3 30.7 80.2 68.1 232.0
08/05 05:30 12.9 52 5.86 3.3 4 6 1013.1 0 13.8 21.9 29.7 77.4 64.7 220.4
08/05 05:20 13.1 53 6.05 3.9 6 6 1013.1 0 14.2 22.1 30.3 79.1 66.9 227.9
08/05 05:10 13.1 53 6.05 3.8 4 6 1013.1 0 14.2 22.1 30.3 79.1 66.9 227.9
08/05 05:00 13.4 52 6.05 3.9 4 6 1013.1 0 14.2 22.1 30.2 78.8 66.6 227.0
08/05 04:50 13.8 49 5.84 3.3 7 7 1013.1 0 13.7 21.6 29.3 76.4 63.8 217.1
08/05 04:40 13.9 49 5.87 3.3 6 9 1013.1 0 13.8 21.7 29.4 76.6 64.1 218.1
08/05 04:30 14 50 6.03 3.9 6 6 1013.1 0 14.1 21.9 29.9 78.0 65.9 224.5
08/05 04:20 14.2 50 6.11 3.9 6 9 1013.1 0 14.3 21.9 30.1 78.6 66.7 227.3
08/05 04:10 14.3 48 5.9 3.6 7 7 1013.1 0 13.8 21.6 29.3 76.5 64.1 218.3
08/05 04:00 14.3 49 6.02 3.9 6 7 1013.1 0 14.1 21.8 29.8 77.6 65.5 223.3
08/05 03:50 14.4 48 5.93 3.7 7 9 1013.1 0 13.9 21.6 29.4 76.7 64.4 219.3
08/05 03:40 14.5 48 5.97 3.8 7 9 1013.1 0 14.0 21.7 29.5 77.0 64.8 220.6
08/05 03:30 14.5 49 6.09 4.1 6 7 1013.1 0 14.2 21.8 29.9 78.1 66.2 225.6
08/05 03:20 14.5 51 6.34 4.7 6 7 1013.1 0 14.8 22.2 30.8 80.5 69.2 236.1
08/05 03:10 14.2 54 6.59 5 4 6 1013.1 0 15.3 22.7 31.9 83.3 72.5 247.6
08/05 03:00 14.3 56 6.88 5.7 4 6 1013.1 0 15.9 23.1 32.9 86.1 75.9 259.7
08/05 02:50 14.7 54 6.8 5.6 6 6 1013.1 0 15.7 22.8 32.5 84.8 74.5 255.0
08/05 02:40 14.9 53 6.75 5.4 4 6 1013.1 0 15.6 22.7 32.2 84.1 73.8 252.3
08/05 02:30 15.1 51 6.58 5.1 6 6 1013.1 0 15.2 22.4 31.5 82.3 71.5 244.4
08/05 02:20 15.2 53 6.88 5.7 6 7 1013.1 0 15.9 22.8 32.5 85.1 75.0 256.8
08/05 02:10 15.4 51 6.7 5.3 6 6 1013.1 0 15.5 22.5 31.8 83.1 72.7 248.6
08/05 02:00 15.7 51 6.82 5.7 4 6 1013.1 0 15.7 22.6 32.1 84.0 73.9 252.7
08/05 01:50 16 49 6.68 5.4 7 11 1013.1 0 15.4 22.3 31.5 82.3 71.9 245.9
08/05 01:40 16.1 48 6.58 5.1 9 11 1013.1 0 15.2 22.2 31.1 81.3 70.6 241.4
08/05 01:30 16.1 48 6.58 5.3 7 9 1013.1 0 15.2 22.2 31.1 81.3 70.6 241.4
08/05 01:20 16 49 6.68 5.5 4 7 1013.1 0 15.4 22.3 31.5 82.3 71.9 245.9
08/05 01:10 16.4 52 7.26 6.6 6 7 1013.1 0 16.6 23.1 33.5 87.5 78.5 269.1
08/05 01:00 16.6 51 7.2 6.4 4 6 1013.1 0 16.5 23.0 33.2 86.7 77.6 265.9
08/05 00:50 17.1 46 6.7 5.6 7 7 1013.1 0 15.4 22.1 31.2 81.4 71.2 243.4
08/05 00:40 17.4 46 6.82 5.9 6 7 1013.1 0 15.7 22.2 31.5 82.2 72.3 247.5
08/05 00:30 17.9 43 6.56 5.3 4 7 1013.1 0 15.1 21.7 30.4 79.3 68.8 235.3
08/05 00:20 18.2 42 6.53 5.1 7 13 1013.1 0 15.0 21.6 30.1 78.7 68.2 233.3
08/05 00:10 18.3 44 6.88 5.9 7 11 1013.1 0 15.7 22.1 31.3 81.9 72.2 247.2
08/05 00:00 18.2 42 6.53 5.3 7 9 1013.1 0 15.0 21.6 30.1 78.7 68.2 233.3
07/05 23:50 18.2 43 6.68 5.4 7 11 1013.1 0 15.3 21.8 30.7 80.1 70.0 239.3
07/05 23:40 18.1 43 6.64 5.5 7 11 1013.1 0 15.2 21.8 30.6 79.8 69.6 238.0
07/05 23:30 18.2 44 6.84 5.7 7 9 1013.1 0 15.7 22.0 31.2 81.6 71.8 245.9
07/05 23:20 18.3 44 6.88 6 7 7 1013.1 0 15.7 22.1 31.3 81.9 72.2 247.2
07/05 23:10 18.4 43 6.76 5.8 6 7 1013.1 0 15.5 21.9 30.9 80.7 70.7 242.0
07/05 23:00 18.6 42 6.68 5.5 7 9 1013.1 0 15.3 21.7 30.5 79.7 69.6 238.2
07/05 22:50 18.6 42 6.68 5.4 7 11 1013.1 0 15.3 21.7 30.5 79.7 69.6 238.2
07/05 22:40 18.4 47 7.39 7 4 6 1013.1 0 16.8 22.8 33.1 86.7 78.1 267.9
07/05 22:30 18.9 50 8.1 8.2 2 7 1013.1 0 18.3 23.7 35.5 93.0 86.1 296.0
07/05 22:20 19.3 39 6.47 5.2 7 9 1013.1 0 14.8 21.3 29.5 77.1 66.6 227.7
07/05 22:10 19.5 39 6.54 5.2 7 11 1013.1 0 15.0 21.3 29.7 77.6 67.2 230.0
07/05 22:00 19.6 37 6.25 4.8 7 9 1013.1 0 14.4 20.9 28.7 74.8 63.9 218.2
07/05 21:50 19.7 37 6.28 4.8 7 9 1013.1 0 14.4 20.9 28.7 75.0 64.2 219.1
07/05 21:40 19.8 37 6.32 5 6 7 1013.1 0 14.5 20.9 28.8 75.3 64.5 220.5
07/05 21:30 19.9 38 6.53 5.3 7 7 1013.1 0 14.9 21.2 29.5 77.1 66.8 228.5
07/05 21:20 20 39 6.74 5.7 6 7 1013.1 0 15.4 21.5 30.2 78.9 69.1 236.5
07/05 21:10 20.2 39 6.82 5.8 6 6 1013.1 0 15.5 21.5 30.4 79.5 69.8 239.1
07/05 21:00 20.4 38 6.72 5.7 4 4 1013.1 0 15.3 21.4 30.0 78.3 68.5 234.6
07/05 20:50 20.7 36 6.48 5.2 6 9 1013.1 0 14.8 21.0 29.1 75.9 65.6 224.3
07/05 20:40 20.7 35 6.3 4.8 6 7 1013.1 0 14.4 20.7 28.5 74.3 63.6 217.3
07/05 20:30 20.8 36 6.52 5.4 6 7 1013.1 0 14.9 21.0 29.2 76.2 65.9 225.6
07/05 20:20 21 36 6.59 5.3 4 6 1013.1 0 15.0 21.0 29.3 76.6 66.6 227.8
07/05 20:10 20.9 36 6.56 5.4 6 6 1013.1 0 15.0 21.0 29.3 76.4 66.3 226.9
07/05 20:00 20 37 6.39 5 6 7 1013.1 0 14.7 21.0 29.0 75.7 65.1 222.7
07/05 19:50 19.2 52 8.57 9.3 0 4 1013.1 0 19.3 24.3 37.1 97.3 91.5 314.9

Last Refresh: 08-May-2026 12:07:17

Bureau of Meteorology